Topi Weather



Topi's Current Weather

Temprature 12o smoke

smoke

Rain: 0 %

Min Temprature12o
Max Temprature12o
Humidity71
Wind Speed1.7 m/h
Sun Rise06:25:32
Sun Set17:20:51
Current Time: 28-Oct-2020 08:19:26
Lat/Lon: 34.07, 72.62




Topi's Geo Location



Topi's Weather Forecast

Time Overall Temp Min Temp Max Temp Humidity Wind Speed Rain
28-Oct-2020 (Wed)
11:00:00 clear sky 19.020 19.020 26.380 45 1.9 m/h 0 %
14:00:00 scattered clouds 25.370 25.370 29.050 26 2.1 m/h 0 %
17:00:00 scattered clouds 23.400 23.400 24.180 23 0.68 m/h 0 %
20:00:00 clear sky 20.520 20.520 20.590 24 2.76 m/h 0 %
23:00:00 clear sky 18.870 18.870 18.870 26 3.06 m/h 0 %
29-Oct-2020 (Thu)
02:00:00 clear sky 17.620 17.620 17.620 28 3.1 m/h 0 %
05:00:00 clear sky 16.230 16.230 16.230 31 1.93 m/h 0 %
08:00:00 clear sky 19.370 19.370 19.370 26 1.8 m/h 0 %
11:00:00 few clouds 26.310 26.310 26.310 17 1.8 m/h 0 %
14:00:00 few clouds 28.950 28.950 28.950 15 2.39 m/h 0 %
17:00:00 clear sky 24.090 24.090 24.090 21 1.26 m/h 0 %
20:00:00 clear sky 20.210 20.210 20.210 25 2.31 m/h 0 %
23:00:00 clear sky 18.320 18.320 18.320 28 3.11 m/h 0 %
30-Oct-2020 (Fri)
02:00:00 clear sky 16.840 16.840 16.840 30 3.07 m/h 0 %
05:00:00 clear sky 15.380 15.380 15.380 33 2.38 m/h 0 %
08:00:00 clear sky 18.760 18.760 18.760 27 1.73 m/h 0 %
11:00:00 clear sky 26.220 26.220 26.220 17 2.28 m/h 0 %
14:00:00 clear sky 29.110 29.110 29.110 14 3.2 m/h 0 %
17:00:00 clear sky 23.850 23.850 23.850 19 1.87 m/h 0 %
20:00:00 clear sky 19.420 19.420 19.420 24 2.1 m/h 0 %
23:00:00 clear sky 17.480 17.480 17.480 27 2.88 m/h 0 %
31-Oct-2020 (Sat)
02:00:00 clear sky 16.160 16.160 16.160 29 2.77 m/h 0 %
05:00:00 clear sky 14.830 14.830 14.830 31 2.32 m/h 0 %
08:00:00 clear sky 18.290 18.290 18.290 26 1.91 m/h 0 %
11:00:00 clear sky 26.020 26.020 26.020 16 2.49 m/h 0 %
14:00:00 clear sky 29.120 29.120 29.120 13 3.56 m/h 0 %
17:00:00 clear sky 23.850 23.850 23.850 18 1.85 m/h 0 %
20:00:00 clear sky 19.130 19.130 19.130 23 2.13 m/h 0 %
23:00:00 clear sky 17.410 17.410 17.410 26 2.71 m/h 0 %
01-Nov-2020 (Sun)
02:00:00 clear sky 16.130 16.130 16.130 28 2.56 m/h 0 %
05:00:00 clear sky 14.930 14.930 14.930 30 2.18 m/h 0 %
08:00:00 clear sky 18.590 18.590 18.590 25 1.61 m/h 0 %
11:00:00 clear sky 26.280 26.280 26.280 15 2.49 m/h 0 %
14:00:00 clear sky 29.450 29.450 29.450 13 3.21 m/h 0 %
17:00:00 clear sky 23.930 23.930 23.930 18 1.57 m/h 0 %
20:00:00 clear sky 19.630 19.630 19.630 22 2.34 m/h 0 %
23:00:00 clear sky 17.820 17.820 17.820 25 2.67 m/h 0 %
02-Nov-2020 (Mon)
02:00:00 clear sky 16.570 16.570 16.570 27 2.8 m/h 0 %
05:00:00 clear sky 15.350 15.350 15.350 29 2.33 m/h 0 %
08:00:00 clear sky 18.690 18.690 18.690 24 1.61 m/h 0 %

Famous Cities (60)